sensor_id;sensor_type;location;lat;lon;timestamp;pressure;altitude;pressure_sealevel;temperature;humidity
20889;BME280;10604;51.976;7.594;2023-11-21T00:01:46;100213.19;;;24.93;32.61
20889;BME280;10604;51.976;7.594;2023-11-21T00:04:11;100209.34;;;24.95;32.31
20889;BME280;10604;51.976;7.594;2023-11-21T00:06:36;100217.91;;;24.81;33.17
20889;BME280;10604;51.976;7.594;2023-11-21T00:09:01;100226.47;;;24.77;32.75
20889;BME280;10604;51.976;7.594;2023-11-21T00:11:27;100216.44;;;24.87;33.21
20889;BME280;10604;51.976;7.594;2023-11-21T00:13:53;100212.66;;;24.80;32.87
20889;BME280;10604;51.976;7.594;2023-11-21T00:16:18;100221.16;;;24.85;33.06
20889;BME280;10604;51.976;7.594;2023-11-21T00:18:44;100212.50;;;24.91;32.99
20889;BME280;10604;51.976;7.594;2023-11-21T00:21:11;100221.13;;;24.94;33.43
20889;BME280;10604;51.976;7.594;2023-11-21T00:23:37;100220.38;;;25.02;33.54
20889;BME280;10604;51.976;7.594;2023-11-21T00:26:02;100226.75;;;25.01;33.23
20889;BME280;10604;51.976;7.594;2023-11-21T00:28:29;100233.34;;;25.16;33.36
20889;BME280;10604;51.976;7.594;2023-11-21T00:30:55;100224.34;;;25.08;33.17
20889;BME280;10604;51.976;7.594;2023-11-21T00:33:20;100232.94;;;24.93;33.17
20889;BME280;10604;51.976;7.594;2023-11-21T00:35:45;100230.81;;;25.15;33.50
20889;BME280;10604;51.976;7.594;2023-11-21T00:38:10;100225.28;;;25.34;33.56
20889;BME280;10604;51.976;7.594;2023-11-21T00:40:36;100223.81;;;25.40;33.43
20889;BME280;10604;51.976;7.594;2023-11-21T00:43:01;100229.22;;;25.40;33.12
20889;BME280;10604;51.976;7.594;2023-11-21T00:45:26;100220.25;;;25.21;33.43
20889;BME280;10604;51.976;7.594;2023-11-21T00:47:51;100227.34;;;25.22;33.15
20889;BME280;10604;51.976;7.594;2023-11-21T00:50:17;100225.81;;;25.20;33.84
20889;BME280;10604;51.976;7.594;2023-11-21T00:52:42;100232.16;;;25.28;33.30
20889;BME280;10604;51.976;7.594;2023-11-21T00:55:07;100233.81;;;25.29;33.14
20889;BME280;10604;51.976;7.594;2023-11-21T00:57:33;100239.31;;;25.20;33.82
20889;BME280;10604;51.976;7.594;2023-11-21T00:59:58;100246.84;;;25.16;34.41
20889;BME280;10604;51.976;7.594;2023-11-21T01:02:24;100235.66;;;25.11;34.14
20889;BME280;10604;51.976;7.594;2023-11-21T01:04:50;100237.75;;;25.17;34.43
20889;BME280;10604;51.976;7.594;2023-11-21T01:07:15;100244.34;;;25.32;33.87
20889;BME280;10604;51.976;7.594;2023-11-21T01:09:40;100244.34;;;25.15;34.33
20889;BME280;10604;51.976;7.594;2023-11-21T01:12:06;100236.63;;;25.38;34.37
20889;BME280;10604;51.976;7.594;2023-11-21T01:14:31;100246.66;;;25.27;33.88
20889;BME280;10604;51.976;7.594;2023-11-21T01:16:57;100240.81;;;25.50;33.93
20889;BME280;10604;51.976;7.594;2023-11-21T01:19:22;100243.81;;;25.47;34.18
20889;BME280;10604;51.976;7.594;2023-11-21T01:21:47;100240.13;;;25.83;33.87
20889;BME280;10604;51.976;7.594;2023-11-21T01:24:12;100240.19;;;25.56;34.15
20889;BME280;10604;51.976;7.594;2023-11-21T01:26:38;100246.81;;;25.44;34.23
20889;BME280;10604;51.976;7.594;2023-11-21T01:29:03;100247.88;;;25.51;34.07
20889;BME280;10604;51.976;7.594;2023-11-21T01:31:29;100254.91;;;25.71;33.56
20889;BME280;10604;51.976;7.594;2023-11-21T01:33:55;100255.75;;;25.71;33.32
20889;BME280;10604;51.976;7.594;2023-11-21T01:36:20;100256.28;;;25.75;33.85
20889;BME280;10604;51.976;7.594;2023-11-21T01:38:46;100262.22;;;25.79;33.11
20889;BME280;10604;51.976;7.594;2023-11-21T01:41:13;100263.03;;;25.79;33.77
20889;BME280;10604;51.976;7.594;2023-11-21T01:43:38;100264.25;;;26.02;33.92
20889;BME280;10604;51.976;7.594;2023-11-21T01:46:03;100262.91;;;25.98;33.32
20889;BME280;10604;51.976;7.594;2023-11-21T01:48:31;100264.41;;;26.19;33.58
20889;BME280;10604;51.976;7.594;2023-11-21T01:50:56;100258.72;;;25.86;33.58
20889;BME280;10604;51.976;7.594;2023-11-21T01:53:23;100271.47;;;25.94;33.86
20889;BME280;10604;51.976;7.594;2023-11-21T01:55:49;100272.78;;;25.72;33.70
20889;BME280;10604;51.976;7.594;2023-11-21T01:58:14;100275.72;;;25.96;33.94
20889;BME280;10604;51.976;7.594;2023-11-21T02:00:39;100281.56;;;26.09;33.84
20889;BME280;10604;51.976;7.594;2023-11-21T02:03:04;100278.78;;;26.01;33.79
20889;BME280;10604;51.976;7.594;2023-11-21T02:05:31;100277.25;;;25.99;33.51
20889;BME280;10604;51.976;7.594;2023-11-21T02:07:57;100275.66;;;25.70;34.00
20889;BME280;10604;51.976;7.594;2023-11-21T02:10:22;100286.06;;;25.83;33.27
20889;BME280;10604;51.976;7.594;2023-11-21T02:12:50;100281.13;;;25.96;33.63
20889;BME280;10604;51.976;7.594;2023-11-21T02:15:16;100289.06;;;25.80;33.45
20889;BME280;10604;51.976;7.594;2023-11-21T02:17:45;100293.41;;;25.73;34.33
20889;BME280;10604;51.976;7.594;2023-11-21T02:20:12;100299.41;;;26.02;33.64
20889;BME280;10604;51.976;7.594;2023-11-21T02:22:41;100305.44;;;26.14;33.98
20889;BME280;10604;51.976;7.594;2023-11-21T02:25:07;100308.13;;;26.32;33.81
20889;BME280;10604;51.976;7.594;2023-11-21T02:27:32;100306.34;;;26.23;33.12
20889;BME280;10604;51.976;7.594;2023-11-21T02:29:58;100308.50;;;26.37;33.42
20889;BME280;10604;51.976;7.594;2023-11-21T02:32:23;100312.28;;;26.44;33.44
20889;BME280;10604;51.976;7.594;2023-11-21T02:34:51;100317.41;;;26.11;33.82
20889;BME280;10604;51.976;7.594;2023-11-21T02:37:16;100313.09;;;26.19;33.12
20889;BME280;10604;51.976;7.594;2023-11-21T02:39:41;100319.41;;;26.09;33.56
20889;BME280;10604;51.976;7.594;2023-11-21T02:42:06;100312.53;;;26.33;33.26
20889;BME280;10604;51.976;7.594;2023-11-21T02:44:31;100312.53;;;26.15;33.34
20889;BME280;10604;51.976;7.594;2023-11-21T02:46:57;100317.78;;;26.17;33.41
20889;BME280;10604;51.976;7.594;2023-11-21T02:49:22;100318.50;;;26.19;33.33
20889;BME280;10604;51.976;7.594;2023-11-21T02:51:48;100310.00;;;26.13;33.32
20889;BME280;10604;51.976;7.594;2023-11-21T02:54:13;100327.31;;;26.21;33.64
20889;BME280;10604;51.976;7.594;2023-11-21T02:56:38;100326.72;;;26.27;33.48
20889;BME280;10604;51.976;7.594;2023-11-21T02:59:05;100323.66;;;26.30;33.46
20889;BME280;10604;51.976;7.594;2023-11-21T03:01:30;100316.41;;;25.95;33.75
20889;BME280;10604;51.976;7.594;2023-11-21T03:03:56;100314.97;;;26.00;33.45
20889;BME280;10604;51.976;7.594;2023-11-21T03:06:21;100315.72;;;26.10;33.70
20889;BME280;10604;51.976;7.594;2023-11-21T03:08:47;100316.59;;;26.29;33.05
20889;BME280;10604;51.976;7.594;2023-11-21T03:11:12;100319.81;;;26.32;33.36
20889;BME280;10604;51.976;7.594;2023-11-21T03:13:38;100321.44;;;26.43;33.51
20889;BME280;10604;51.976;7.594;2023-11-21T03:16:04;100318.66;;;25.99;33.99
20889;BME280;10604;51.976;7.594;2023-11-21T03:18:29;100328.00;;;25.87;34.25
20889;BME280;10604;51.976;7.594;2023-11-21T03:20:55;100330.78;;;25.95;33.53
20889;BME280;10604;51.976;7.594;2023-11-21T03:23:20;100326.06;;;25.97;33.26
20889;BME280;10604;51.976;7.594;2023-11-21T03:25:45;100331.72;;;26.04;33.31
20889;BME280;10604;51.976;7.594;2023-11-21T03:28:10;100331.84;;;26.02;32.85
20889;BME280;10604;51.976;7.594;2023-11-21T03:30:36;100335.19;;;25.96;33.30
20889;BME280;10604;51.976;7.594;2023-11-21T03:33:01;100346.28;;;25.58;33.07
20889;BME280;10604;51.976;7.594;2023-11-21T03:35:26;100356.28;;;25.48;33.72
20889;BME280;10604;51.976;7.594;2023-11-21T03:37:52;100372.59;;;25.28;33.91
20889;BME280;10604;51.976;7.594;2023-11-21T03:40:18;100364.88;;;25.33;34.33
20889;BME280;10604;51.976;7.594;2023-11-21T03:42:43;100362.06;;;25.25;33.78
20889;BME280;10604;51.976;7.594;2023-11-21T03:45:08;100354.78;;;25.63;33.56
20889;BME280;10604;51.976;7.594;2023-11-21T03:47:34;100357.44;;;25.90;33.60
20889;BME280;10604;51.976;7.594;2023-11-21T03:49:59;100366.31;;;26.18;33.45
20889;BME280;10604;51.976;7.594;2023-11-21T03:52:24;100371.34;;;25.95;33.41
20889;BME280;10604;51.976;7.594;2023-11-21T03:54:50;100374.28;;;26.02;33.39
20889;BME280;10604;51.976;7.594;2023-11-21T03:57:15;100376.22;;;26.09;33.44
20889;BME280;10604;51.976;7.594;2023-11-21T03:59:41;100376.59;;;25.97;33.55
20889;BME280;10604;51.976;7.594;2023-11-21T04:02:06;100369.78;;;25.75;33.74
20889;BME280;10604;51.976;7.594;2023-11-21T04:04:32;100375.19;;;25.75;34.36
20889;BME280;10604;51.976;7.594;2023-11-21T04:06:58;100384.00;;;25.77;34.54
20889;BME280;10604;51.976;7.594;2023-11-21T04:09:23;100391.78;;;25.80;34.31
20889;BME280;10604;51.976;7.594;2023-11-21T04:11:50;100394.00;;;25.67;33.73
20889;BME280;10604;51.976;7.594;2023-11-21T04:14:15;100401.22;;;25.94;33.38
20889;BME280;10604;51.976;7.594;2023-11-21T04:16:40;100402.00;;;25.59;34.53
20889;BME280;10604;51.976;7.594;2023-11-21T04:19:06;100399.72;;;25.64;33.97
20889;BME280;10604;51.976;7.594;2023-11-21T04:21:31;100396.59;;;25.59;34.77
20889;BME280;10604;51.976;7.594;2023-11-21T04:23:58;100399.78;;;25.45;34.60
20889;BME280;10604;51.976;7.594;2023-11-21T04:26:23;100395.19;;;25.55;34.28
20889;BME280;10604;51.976;7.594;2023-11-21T04:28:48;100403.09;;;25.66;33.94
20889;BME280;10604;51.976;7.594;2023-11-21T04:31:14;100404.44;;;25.62;34.53
20889;BME280;10604;51.976;7.594;2023-11-21T04:33:40;100404.81;;;25.67;34.10
20889;BME280;10604;51.976;7.594;2023-11-21T04:36:05;100400.22;;;25.77;33.74
20889;BME280;10604;51.976;7.594;2023-11-21T04:38:30;100401.75;;;25.80;33.77
20889;BME280;10604;51.976;7.594;2023-11-21T04:40:55;100407.19;;;25.97;33.48
20889;BME280;10604;51.976;7.594;2023-11-21T04:43:21;100414.78;;;25.66;34.00
20889;BME280;10604;51.976;7.594;2023-11-21T04:45:46;100411.03;;;25.77;34.23
20889;BME280;10604;51.976;7.594;2023-11-21T04:48:11;100417.34;;;25.68;34.62
20889;BME280;10604;51.976;7.594;2023-11-21T04:50:37;100410.72;;;25.80;34.17
20889;BME280;10604;51.976;7.594;2023-11-21T04:53:02;100410.03;;;25.78;33.94
20889;BME280;10604;51.976;7.594;2023-11-21T04:55:27;100416.72;;;25.74;34.08
20889;BME280;10604;51.976;7.594;2023-11-21T04:57:53;100417.09;;;25.52;34.87
20889;BME280;10604;51.976;7.594;2023-11-21T05:00:18;100416.72;;;25.74;34.28
20889;BME280;10604;51.976;7.594;2023-11-21T05:02:43;100421.63;;;25.61;34.06
20889;BME280;10604;51.976;7.594;2023-11-21T05:05:09;100430.56;;;25.71;34.48
20889;BME280;10604;51.976;7.594;2023-11-21T05:07:35;100421.53;;;25.80;33.90
20889;BME280;10604;51.976;7.594;2023-11-21T05:10:00;100425.78;;;25.83;33.60
20889;BME280;10604;51.976;7.594;2023-11-21T05:12:31;100424.72;;;25.66;33.80
20889;BME280;10604;51.976;7.594;2023-11-21T05:15:00;100420.00;;;25.95;33.73
20889;BME280;10604;51.976;7.594;2023-11-21T05:17:25;100419.13;;;25.77;33.61
20889;BME280;10604;51.976;7.594;2023-11-21T05:19:51;100432.22;;;25.72;33.67
20889;BME280;10604;51.976;7.594;2023-11-21T05:22:16;100433.78;;;25.74;34.49
20889;BME280;10604;51.976;7.594;2023-11-21T05:24:41;100435.72;;;25.64;34.42
20889;BME280;10604;51.976;7.594;2023-11-21T05:27:06;100438.25;;;25.93;34.14
20889;BME280;10604;51.976;7.594;2023-11-21T05:29:32;100431.91;;;26.02;34.18
20889;BME280;10604;51.976;7.594;2023-11-21T05:31:57;100439.75;;;25.78;34.17
20889;BME280;10604;51.976;7.594;2023-11-21T05:34:22;100441.84;;;25.84;33.95
20889;BME280;10604;51.976;7.594;2023-11-21T05:36:49;100444.66;;;25.65;34.41
20889;BME280;10604;51.976;7.594;2023-11-21T05:39:14;100446.06;;;25.69;33.80
20889;BME280;10604;51.976;7.594;2023-11-21T05:41:42;100455.44;;;25.65;34.37
20889;BME280;10604;51.976;7.594;2023-11-21T05:44:07;100463.16;;;25.60;34.45
20889;BME280;10604;51.976;7.594;2023-11-21T05:46:32;100470.56;;;25.58;34.45
20889;BME280;10604;51.976;7.594;2023-11-21T05:48:57;100469.72;;;25.48;34.65
20889;BME280;10604;51.976;7.594;2023-11-21T05:51:23;100476.06;;;25.66;34.03
20889;BME280;10604;51.976;7.594;2023-11-21T05:53:48;100480.34;;;25.68;34.18
20889;BME280;10604;51.976;7.594;2023-11-21T05:56:13;100484.69;;;25.79;34.24
20889;BME280;10604;51.976;7.594;2023-11-21T05:58:39;100484.13;;;25.85;33.82
20889;BME280;10604;51.976;7.594;2023-11-21T06:01:05;100486.59;;;25.96;34.05
20889;BME280;10604;51.976;7.594;2023-11-21T06:03:32;100499.22;;;26.05;33.90
20889;BME280;10604;51.976;7.594;2023-11-21T06:05:57;100491.97;;;26.06;33.87
20889;BME280;10604;51.976;7.594;2023-11-21T06:08:23;100500.22;;;26.04;34.40
20889;BME280;10604;51.976;7.594;2023-11-21T06:10:48;100497.94;;;25.35;35.23
20889;BME280;10604;51.976;7.594;2023-11-21T06:13:14;100509.81;;;26.17;34.25
20889;BME280;10604;51.976;7.594;2023-11-21T06:15:39;100506.91;;;25.73;34.99
20889;BME280;10604;51.976;7.594;2023-11-21T06:18:04;100515.22;;;26.17;34.10
20889;BME280;10604;51.976;7.594;2023-11-21T06:20:34;100511.66;;;26.16;33.82
20889;BME280;10604;51.976;7.594;2023-11-21T06:23:02;100523.56;;;26.05;33.70
20889;BME280;10604;51.976;7.594;2023-11-21T06:25:28;100524.44;;;25.96;33.93
20889;BME280;10604;51.976;7.594;2023-11-21T06:27:54;100530.66;;;26.06;34.29
20889;BME280;10604;51.976;7.594;2023-11-21T06:30:19;100531.44;;;26.17;34.24
20889;BME280;10604;51.976;7.594;2023-11-21T06:32:45;100540.06;;;26.02;34.44
20889;BME280;10604;51.976;7.594;2023-11-21T06:35:13;100535.88;;;25.90;34.14
20889;BME280;10604;51.976;7.594;2023-11-21T06:37:38;100535.25;;;25.96;34.69
20889;BME280;10604;51.976;7.594;2023-11-21T06:40:03;100537.00;;;25.88;34.19
20889;BME280;10604;51.976;7.594;2023-11-21T06:42:29;100540.88;;;26.12;34.40
20889;BME280;10604;51.976;7.594;2023-11-21T06:44:54;100544.09;;;25.98;34.40
20889;BME280;10604;51.976;7.594;2023-11-21T06:47:22;100547.13;;;25.29;35.67
20889;BME280;10604;51.976;7.594;2023-11-21T06:49:50;100556.03;;;25.96;34.96
20889;BME280;10604;51.976;7.594;2023-11-21T06:52:15;100551.34;;;25.61;35.36
20889;BME280;10604;51.976;7.594;2023-11-21T06:54:40;100552.81;;;25.83;35.05
20889;BME280;10604;51.976;7.594;2023-11-21T06:57:06;100555.38;;;25.84;34.55
20889;BME280;10604;51.976;7.594;2023-11-21T06:59:31;100561.78;;;25.83;35.31
20889;BME280;10604;51.976;7.594;2023-11-21T07:01:56;100561.50;;;26.13;34.65
20889;BME280;10604;51.976;7.594;2023-11-21T07:04:22;100569.31;;;26.17;34.28
20889;BME280;10604;51.976;7.594;2023-11-21T07:06:47;100571.34;;;26.15;34.44
20889;BME280;10604;51.976;7.594;2023-11-21T07:09:12;100578.41;;;26.16;34.34
20889;BME280;10604;51.976;7.594;2023-11-21T07:11:38;100585.34;;;26.00;34.74
20889;BME280;10604;51.976;7.594;2023-11-21T07:14:04;100589.59;;;26.03;34.34
20889;BME280;10604;51.976;7.594;2023-11-21T07:16:34;100598.63;;;26.21;34.53
20889;BME280;10604;51.976;7.594;2023-11-21T07:18:59;100596.22;;;25.81;35.12
20889;BME280;10604;51.976;7.594;2023-11-21T07:21:25;100597.31;;;25.98;34.43
20889;BME280;10604;51.976;7.594;2023-11-21T07:23:50;100606.03;;;26.29;34.53
20889;BME280;10604;51.976;7.594;2023-11-21T07:26:15;100601.72;;;26.36;34.19
20889;BME280;10604;51.976;7.594;2023-11-21T07:28:40;100602.63;;;26.17;34.07
20889;BME280;10604;51.976;7.594;2023-11-21T07:31:06;100609.22;;;26.05;34.41
20889;BME280;10604;51.976;7.594;2023-11-21T07:33:31;100611.31;;;26.21;34.50
20889;BME280;10604;51.976;7.594;2023-11-21T07:35:56;100612.91;;;26.13;34.91
20889;BME280;10604;51.976;7.594;2023-11-21T07:38:21;100616.38;;;25.96;35.13
20889;BME280;10604;51.976;7.594;2023-11-21T07:40:47;100618.38;;;25.94;34.74
20889;BME280;10604;51.976;7.594;2023-11-21T07:43:12;100614.41;;;25.89;35.44
20889;BME280;10604;51.976;7.594;2023-11-21T07:45:37;100623.72;;;26.13;34.79
20889;BME280;10604;51.976;7.594;2023-11-21T07:48:03;100625.19;;;26.63;33.88
20889;BME280;10604;51.976;7.594;2023-11-21T07:50:30;100624.25;;;26.27;34.50
20889;BME280;10604;51.976;7.594;2023-11-21T07:52:55;100623.00;;;25.65;34.76
20889;BME280;10604;51.976;7.594;2023-11-21T07:55:21;100630.88;;;26.05;34.55
20889;BME280;10604;51.976;7.594;2023-11-21T07:57:46;100642.22;;;26.08;34.92
20889;BME280;10604;51.976;7.594;2023-11-21T08:00:11;100641.81;;;26.50;34.35
20889;BME280;10604;51.976;7.594;2023-11-21T08:02:38;100648.56;;;26.81;33.50
20889;BME280;10604;51.976;7.594;2023-11-21T08:05:03;100643.38;;;26.70;33.94
20889;BME280;10604;51.976;7.594;2023-11-21T08:07:29;100643.69;;;26.40;34.12
20889;BME280;10604;51.976;7.594;2023-11-21T08:09:54;100653.13;;;26.63;33.96
20889;BME280;10604;51.976;7.594;2023-11-21T08:12:19;100653.63;;;26.49;34.52
20889;BME280;10604;51.976;7.594;2023-11-21T08:14:45;100656.94;;;26.43;34.68
20889;BME280;10604;51.976;7.594;2023-11-21T08:17:10;100664.97;;;26.25;34.73
20889;BME280;10604;51.976;7.594;2023-11-21T08:19:36;100666.06;;;26.42;34.59
20889;BME280;10604;51.976;7.594;2023-11-21T08:22:02;100668.84;;;26.13;34.57
20889;BME280;10604;51.976;7.594;2023-11-21T08:24:27;100675.00;;;26.05;34.80
20889;BME280;10604;51.976;7.594;2023-11-21T08:26:52;100678.25;;;26.46;34.51
20889;BME280;10604;51.976;7.594;2023-11-21T08:29:19;100684.47;;;26.29;34.89
20889;BME280;10604;51.976;7.594;2023-11-21T08:31:44;100687.97;;;26.39;34.99
20889;BME280;10604;51.976;7.594;2023-11-21T08:34:12;100693.47;;;26.57;34.53
20889;BME280;10604;51.976;7.594;2023-11-21T08:36:40;100695.44;;;26.18;34.82
20889;BME280;10604;51.976;7.594;2023-11-21T08:39:06;100710.44;;;26.49;34.54
20889;BME280;10604;51.976;7.594;2023-11-21T08:41:31;100706.84;;;26.85;33.82
20889;BME280;10604;51.976;7.594;2023-11-21T08:43:56;100706.84;;;26.85;33.92
20889;BME280;10604;51.976;7.594;2023-11-21T08:46:23;100707.38;;;26.99;33.81
20889;BME280;10604;51.976;7.594;2023-11-21T08:48:51;100710.56;;;26.84;34.31
20889;BME280;10604;51.976;7.594;2023-11-21T08:51:17;100703.22;;;26.67;34.56
20889;BME280;10604;51.976;7.594;2023-11-21T08:53:43;100705.81;;;26.32;35.38
20889;BME280;10604;51.976;7.594;2023-11-21T08:56:11;100715.06;;;26.66;34.58
20889;BME280;10604;51.976;7.594;2023-11-21T08:58:37;100715.66;;;26.87;34.44
20889;BME280;10604;51.976;7.594;2023-11-21T09:01:02;100718.06;;;27.18;33.84
20889;BME280;10604;51.976;7.594;2023-11-21T09:03:28;100715.66;;;26.87;34.54
20889;BME280;10604;51.976;7.594;2023-11-21T09:05:53;100726.31;;;26.71;34.70
20889;BME280;10604;51.976;7.594;2023-11-21T09:08:18;100738.81;;;26.72;34.53
20889;BME280;10604;51.976;7.594;2023-11-21T09:10:44;100734.75;;;26.96;34.44
20889;BME280;10604;51.976;7.594;2023-11-21T09:13:12;100737.53;;;27.04;34.09
20889;BME280;10604;51.976;7.594;2023-11-21T09:15:37;100742.47;;;26.91;34.49
20889;BME280;10604;51.976;7.594;2023-11-21T09:18:03;100740.34;;;26.84;34.19
20889;BME280;10604;51.976;7.594;2023-11-21T09:20:28;100743.34;;;26.91;34.42
20889;BME280;10604;51.976;7.594;2023-11-21T09:22:53;100754.59;;;27.14;33.71
20889;BME280;10604;51.976;7.594;2023-11-21T09:25:20;100753.78;;;27.04;34.06
20889;BME280;10604;51.976;7.594;2023-11-21T09:27:46;100758.69;;;27.18;34.20
20889;BME280;10604;51.976;7.594;2023-11-21T09:30:12;100758.59;;;26.82;34.63
20889;BME280;10604;51.976;7.594;2023-11-21T09:32:39;100761.03;;;26.76;34.38
20889;BME280;10604;51.976;7.594;2023-11-21T09:35:05;100758.72;;;26.91;34.27
20889;BME280;10604;51.976;7.594;2023-11-21T09:37:33;100771.44;;;27.08;33.88
20889;BME280;10604;51.976;7.594;2023-11-21T09:39:58;100768.81;;;27.16;33.63
20889;BME280;10604;51.976;7.594;2023-11-21T09:42:25;100776.06;;;26.98;34.01
20889;BME280;10604;51.976;7.594;2023-11-21T09:45:01;100775.81;;;26.81;34.84
20889;BME280;10604;51.976;7.594;2023-11-21T09:47:29;100781.38;;;26.89;34.77
20889;BME280;10604;51.976;7.594;2023-11-21T09:49:54;100790.88;;;27.03;34.66
20889;BME280;10604;51.976;7.594;2023-11-21T09:52:22;100794.31;;;26.86;34.54
20889;BME280;10604;51.976;7.594;2023-11-21T09:54:50;100794.63;;;26.93;34.81
20889;BME280;10604;51.976;7.594;2023-11-21T09:57:16;100795.66;;;27.09;34.75
20889;BME280;10604;51.976;7.594;2023-11-21T09:59:42;100793.31;;;27.24;33.81
20889;BME280;10604;51.976;7.594;2023-11-21T10:02:09;100794.09;;;27.34;34.26
20889;BME280;10604;51.976;7.594;2023-11-21T10:04:38;100795.50;;;27.38;34.00
20889;BME280;10604;51.976;7.594;2023-11-21T10:07:03;100801.66;;;27.13;34.79
20889;BME280;10604;51.976;7.594;2023-11-21T10:09:33;100800.28;;;27.44;33.66
20889;BME280;10604;51.976;7.594;2023-11-21T10:11:59;100799.66;;;27.60;33.78
20889;BME280;10604;51.976;7.594;2023-11-21T10:14:25;100810.13;;;27.45;33.98
20889;BME280;10604;51.976;7.594;2023-11-21T10:16:54;100810.84;;;27.47;34.11
20889;BME280;10604;51.976;7.594;2023-11-21T10:19:19;100806.03;;;27.41;33.86
20889;BME280;10604;51.976;7.594;2023-11-21T10:21:46;100796.59;;;27.45;33.83
20889;BME280;10604;51.976;7.594;2023-11-21T10:24:11;100805.72;;;27.44;34.22
20889;BME280;10604;51.976;7.594;2023-11-21T10:26:37;100816.47;;;27.36;34.25
20889;BME280;10604;51.976;7.594;2023-11-21T10:29:03;100814.44;;;27.65;33.88
20889;BME280;10604;51.976;7.594;2023-11-21T10:31:29;100814.00;;;26.88;34.33
20889;BME280;10604;51.976;7.594;2023-11-21T10:33:56;100821.88;;;27.36;34.43
20889;BME280;10604;51.976;7.594;2023-11-21T10:36:26;100819.84;;;27.48;33.66
20889;BME280;10604;51.976;7.594;2023-11-21T10:38:52;100828.50;;;27.51;33.90
20889;BME280;10604;51.976;7.594;2023-11-21T10:41:18;100826.53;;;27.44;33.75
20889;BME280;10604;51.976;7.594;2023-11-21T10:43:43;100830.25;;;27.52;33.87
20889;BME280;10604;51.976;7.594;2023-11-21T10:46:09;100834.94;;;27.23;34.18
20889;BME280;10604;51.976;7.594;2023-11-21T10:48:34;100834.66;;;27.26;33.98
20889;BME280;10604;51.976;7.594;2023-11-21T10:51:01;100838.16;;;27.63;33.70
20889;BME280;10604;51.976;7.594;2023-11-21T10:53:31;100845.69;;;27.42;33.66
20889;BME280;10604;51.976;7.594;2023-11-21T10:56:01;100836.44;;;27.08;34.08
20889;BME280;10604;51.976;7.594;2023-11-21T10:58:26;100830.34;;;27.06;34.68
20889;BME280;10604;51.976;7.594;2023-11-21T11:00:52;100841.47;;;27.30;33.92
20889;BME280;10604;51.976;7.594;2023-11-21T11:03:17;100842.25;;;27.67;34.04
20889;BME280;10604;51.976;7.594;2023-11-21T11:05:43;100848.31;;;27.79;33.67
20889;BME280;10604;51.976;7.594;2023-11-21T11:08:16;100856.47;;;27.97;33.64
20889;BME280;10604;51.976;7.594;2023-11-21T11:10:44;100853.81;;;27.42;34.01
20889;BME280;10604;51.976;7.594;2023-11-21T11:13:11;100859.34;;;27.23;34.26
20889;BME280;10604;51.976;7.594;2023-11-21T11:15:40;100845.94;;;26.84;34.26
20889;BME280;10604;51.976;7.594;2023-11-21T11:18:05;100865.06;;;27.47;34.27
20889;BME280;10604;51.976;7.594;2023-11-21T11:20:34;100854.91;;;27.22;34.24
20889;BME280;10604;51.976;7.594;2023-11-21T11:30:32;100849.94;;;27.54;33.96
20889;BME280;10604;51.976;7.594;2023-11-21T11:38:16;100867.56;;;27.58;33.81
20889;BME280;10604;51.976;7.594;2023-11-21T11:40:44;100870.28;;;27.31;33.67
20889;BME280;10604;51.976;7.594;2023-11-21T11:43:10;100869.56;;;27.02;34.49
20889;BME280;10604;51.976;7.594;2023-11-21T11:45:35;100873.91;;;27.49;33.60
20889;BME280;10604;51.976;7.594;2023-11-21T11:48:02;100866.84;;;27.29;34.11
20889;BME280;10604;51.976;7.594;2023-11-21T11:50:28;100877.69;;;27.29;34.21
20889;BME280;10604;51.976;7.594;2023-11-21T11:52:54;100879.59;;;27.46;33.58
20889;BME280;10604;51.976;7.594;2023-11-21T11:55:20;100872.81;;;27.42;34.03
20889;BME280;10604;51.976;7.594;2023-11-21T11:57:52;100883.66;;;27.70;33.60
20889;BME280;10604;51.976;7.594;2023-11-21T12:02:52;100884.16;;;27.55;33.46
20889;BME280;10604;51.976;7.594;2023-11-21T12:05:18;100877.81;;;27.00;33.45
20889;BME280;10604;51.976;7.594;2023-11-21T12:07:48;100896.97;;;26.79;34.44
20889;BME280;10604;51.976;7.594;2023-11-21T12:10:18;100887.63;;;26.45;34.41
20889;BME280;10604;51.976;7.594;2023-11-21T12:12:44;100891.97;;;26.84;34.22
20889;BME280;10604;51.976;7.594;2023-11-21T12:15:11;100894.00;;;27.19;34.13
20889;BME280;10604;51.976;7.594;2023-11-21T12:17:37;100907.00;;;26.50;34.52
20889;BME280;10604;51.976;7.594;2023-11-21T12:20:03;100906.34;;;26.95;33.94
20889;BME280;10604;51.976;7.594;2023-11-21T12:22:29;100918.53;;;27.18;33.97
20889;BME280;10604;51.976;7.594;2023-11-21T12:24:55;100919.13;;;27.12;33.82
20889;BME280;10604;51.976;7.594;2023-11-21T12:27:21;100924.78;;;26.91;33.89
20889;BME280;10604;51.976;7.594;2023-11-21T12:29:46;100921.72;;;27.04;33.84
20889;BME280;10604;51.976;7.594;2023-11-21T12:32:11;100923.34;;;26.77;34.50
20889;BME280;10604;51.976;7.594;2023-11-21T12:34:36;100926.47;;;26.82;34.11
20889;BME280;10604;51.976;7.594;2023-11-21T12:37:03;100923.50;;;26.66;34.61
20889;BME280;10604;51.976;7.594;2023-11-21T12:39:29;100930.34;;;26.61;34.25
20889;BME280;10604;51.976;7.594;2023-11-21T12:41:54;100930.09;;;26.35;34.85
20889;BME280;10604;51.976;7.594;2023-11-21T12:44:19;100934.63;;;26.44;34.47
20889;BME280;10604;51.976;7.594;2023-11-21T12:46:45;100934.94;;;25.72;35.39
20889;BME280;10604;51.976;7.594;2023-11-21T12:49:11;100945.47;;;25.65;35.56
20889;BME280;10604;51.976;7.594;2023-11-21T12:51:42;100950.88;;;26.25;34.96
20889;BME280;10604;51.976;7.594;2023-11-21T12:54:07;100949.72;;;26.37;34.30
20889;BME280;10604;51.976;7.594;2023-11-21T12:56:38;100959.44;;;26.49;34.14
20889;BME280;10604;51.976;7.594;2023-11-21T12:59:03;100959.38;;;26.87;33.88